sensor_id;sensor_type;location;lat;lon;timestamp;temperature;humidity
52439;DHT22;38359;53.150;6.504;2022-11-04T00:00:43;11.80;99.90
52439;DHT22;38359;53.150;6.504;2022-11-04T00:11:08;11.80;99.90
52439;DHT22;38359;53.150;6.504;2022-11-04T00:21:54;11.70;99.90
52439;DHT22;38359;53.150;6.504;2022-11-04T00:32:38;11.70;99.90
52439;DHT22;38359;53.150;6.504;2022-11-04T00:43:22;11.30;99.90
52439;DHT22;38359;53.150;6.504;2022-11-04T00:53:49;11.10;99.90
52439;DHT22;38359;53.150;6.504;2022-11-04T01:04:15;11.00;99.90
52439;DHT22;38359;53.150;6.504;2022-11-04T01:14:41;10.90;99.90
52439;DHT22;38359;53.150;6.504;2022-11-04T01:25:08;10.80;99.90
52439;DHT22;38359;53.150;6.504;2022-11-04T01:35:34;10.80;99.90
52439;DHT22;38359;53.150;6.504;2022-11-04T01:46:00;10.80;99.90
52439;DHT22;38359;53.150;6.504;2022-11-04T01:56:27;10.80;99.90
52439;DHT22;38359;53.150;6.504;2022-11-04T02:07:13;10.80;99.90
52439;DHT22;38359;53.150;6.504;2022-11-04T02:40:11;10.80;99.90
52439;DHT22;38359;53.150;6.504;2022-11-04T02:51:04;10.70;99.90
52439;DHT22;38359;53.150;6.504;2022-11-04T03:01:38;10.60;99.90
52439;DHT22;38359;53.150;6.504;2022-11-04T03:12:09;10.60;99.90
52439;DHT22;38359;53.150;6.504;2022-11-04T03:22:39;10.70;99.90
52439;DHT22;38359;53.150;6.504;2022-11-04T03:33:17;10.60;99.90
52439;DHT22;38359;53.150;6.504;2022-11-04T03:43:55;10.70;99.90
52439;DHT22;38359;53.150;6.504;2022-11-04T03:54:21;10.70;99.90
52439;DHT22;38359;53.150;6.504;2022-11-04T04:04:59;10.70;99.90
52439;DHT22;38359;53.150;6.504;2022-11-04T04:15:36;10.70;99.90
52439;DHT22;38359;53.150;6.504;2022-11-04T04:26:12;10.70;99.90
52439;DHT22;38359;53.150;6.504;2022-11-04T04:37:02;10.50;99.90
52439;DHT22;38359;53.150;6.504;2022-11-04T04:47:44;10.40;99.90
52439;DHT22;38359;53.150;6.504;2022-11-04T04:58:10;10.30;99.90
52439;DHT22;38359;53.150;6.504;2022-11-04T05:08:36;10.20;99.90
52439;DHT22;38359;53.150;6.504;2022-11-04T05:19:02;10.10;99.90
52439;DHT22;38359;53.150;6.504;2022-11-04T05:29:28;10.00;99.90
52439;DHT22;38359;53.150;6.504;2022-11-04T05:39:54;9.90;99.90
52439;DHT22;38359;53.150;6.504;2022-11-04T05:50:20;9.90;99.90
52439;DHT22;38359;53.150;6.504;2022-11-04T06:00:45;9.90;99.90
52439;DHT22;38359;53.150;6.504;2022-11-04T06:11:11;9.80;99.90
52439;DHT22;38359;53.150;6.504;2022-11-04T06:21:37;9.60;99.90
52439;DHT22;38359;53.150;6.504;2022-11-04T06:32:03;9.70;99.90
52439;DHT22;38359;53.150;6.504;2022-11-04T06:42:29;9.60;99.90
52439;DHT22;38359;53.150;6.504;2022-11-04T06:52:55;9.50;99.90
52439;DHT22;38359;53.150;6.504;2022-11-04T07:03:20;9.50;99.90
52439;DHT22;38359;53.150;6.504;2022-11-04T07:13:47;9.40;99.90
52439;DHT22;38359;53.150;6.504;2022-11-04T07:24:13;9.40;99.90
52439;DHT22;38359;53.150;6.504;2022-11-04T07:34:39;9.30;99.90
52439;DHT22;38359;53.150;6.504;2022-11-04T07:45:05;9.20;99.90
52439;DHT22;38359;53.150;6.504;2022-11-04T07:55:31;9.20;99.90
52439;DHT22;38359;53.150;6.504;2022-11-04T08:05:58;9.40;99.90
52439;DHT22;38359;53.150;6.504;2022-11-04T08:16:25;9.50;99.90
52439;DHT22;38359;53.150;6.504;2022-11-04T08:26:51;9.70;99.90
52439;DHT22;38359;53.150;6.504;2022-11-04T08:37:17;9.80;99.90
52439;DHT22;38359;53.150;6.504;2022-11-04T08:47:43;10.00;99.90
52439;DHT22;38359;53.150;6.504;2022-11-04T08:58:09;10.10;99.90
52439;DHT22;38359;53.150;6.504;2022-11-04T09:08:34;10.30;99.90
52439;DHT22;38359;53.150;6.504;2022-11-04T09:19:03;10.40;99.90
52439;DHT22;38359;53.150;6.504;2022-11-04T09:29:29;10.60;99.90
52439;DHT22;38359;53.150;6.504;2022-11-04T09:39:58;10.60;99.90
52439;DHT22;38359;53.150;6.504;2022-11-04T09:50:30;10.80;99.90
52439;DHT22;38359;53.150;6.504;2022-11-04T10:01:27;11.00;99.90
52439;DHT22;38359;53.150;6.504;2022-11-04T10:22:57;11.60;99.90
52439;DHT22;38359;53.150;6.504;2022-11-04T10:33:53;11.60;99.90
52439;DHT22;38359;53.150;6.504;2022-11-04T10:44:26;11.90;99.90
52439;DHT22;38359;53.150;6.504;2022-11-04T10:54:53;11.90;99.90
52439;DHT22;38359;53.150;6.504;2022-11-04T11:15:44;12.60;99.90
52439;DHT22;38359;53.150;6.504;2022-11-04T11:26:28;12.40;99.90
52439;DHT22;38359;53.150;6.504;2022-11-04T11:36:55;12.60;99.90
52439;DHT22;38359;53.150;6.504;2022-11-04T11:57:55;12.50;99.90
52439;DHT22;38359;53.150;6.504;2022-11-04T12:19:42;12.20;99.90
52439;DHT22;38359;53.150;6.504;2022-11-04T12:30:18;11.60;99.90
52439;DHT22;38359;53.150;6.504;2022-11-04T13:03:10;12.00;99.90
52439;DHT22;38359;53.150;6.504;2022-11-04T13:13:38;11.60;99.90
52439;DHT22;38359;53.150;6.504;2022-11-04T13:24:14;12.20;99.90
52439;DHT22;38359;53.150;6.504;2022-11-04T13:35:10;12.60;99.90
52439;DHT22;38359;53.150;6.504;2022-11-04T13:45:52;12.90;99.90
52439;DHT22;38359;53.150;6.504;2022-11-04T13:56:36;13.30;99.90
52439;DHT22;38359;53.150;6.504;2022-11-04T14:07:06;14.20;99.90
52439;DHT22;38359;53.150;6.504;2022-11-04T14:28:15;14.60;99.90
52439;DHT22;38359;53.150;6.504;2022-11-04T14:38:50;14.00;99.90
52439;DHT22;38359;53.150;6.504;2022-11-04T14:49:43;15.20;99.90
52439;DHT22;38359;53.150;6.504;2022-11-04T15:00:31;14.30;99.90
52439;DHT22;38359;53.150;6.504;2022-11-04T15:21:39;12.70;99.90
52439;DHT22;38359;53.150;6.504;2022-11-04T15:32:06;12.40;99.90
52439;DHT22;38359;53.150;6.504;2022-11-04T15:42:32;12.00;99.90
52439;DHT22;38359;53.150;6.504;2022-11-04T15:53:24;12.00;99.90
52439;DHT22;38359;53.150;6.504;2022-11-04T16:03:55;11.60;99.90
52439;DHT22;38359;53.150;6.504;2022-11-04T16:14:24;11.40;99.90
52439;DHT22;38359;53.150;6.504;2022-11-04T16:24:54;11.10;99.90
52439;DHT22;38359;53.150;6.504;2022-11-04T16:35:23;10.80;99.90
52439;DHT22;38359;53.150;6.504;2022-11-04T16:45:51;10.60;99.90
52439;DHT22;38359;53.150;6.504;2022-11-04T16:56:18;10.10;99.90
52439;DHT22;38359;53.150;6.504;2022-11-04T17:06:47;9.80;99.90
52439;DHT22;38359;53.150;6.504;2022-11-04T17:17:13;9.50;99.90
52439;DHT22;38359;53.150;6.504;2022-11-04T17:27:39;9.30;99.90
52439;DHT22;38359;53.150;6.504;2022-11-04T17:38:05;9.10;99.90
52439;DHT22;38359;53.150;6.504;2022-11-04T17:48:31;9.10;99.90
52439;DHT22;38359;53.150;6.504;2022-11-04T17:59:00;8.90;99.90
52439;DHT22;38359;53.150;6.504;2022-11-04T18:09:28;8.90;99.90
52439;DHT22;38359;53.150;6.504;2022-11-04T18:19:55;8.90;99.90
52439;DHT22;38359;53.150;6.504;2022-11-04T18:30:21;8.80;99.90
52439;DHT22;38359;53.150;6.504;2022-11-04T18:40:48;8.60;99.90
52439;DHT22;38359;53.150;6.504;2022-11-04T18:51:13;8.60;99.90
52439;DHT22;38359;53.150;6.504;2022-11-04T19:01:41;8.60;99.90
52439;DHT22;38359;53.150;6.504;2022-11-04T19:12:07;8.60;99.90
52439;DHT22;38359;53.150;6.504;2022-11-04T19:22:52;8.40;99.90
52439;DHT22;38359;53.150;6.504;2022-11-04T19:33:18;8.40;99.90
52439;DHT22;38359;53.150;6.504;2022-11-04T19:43:44;8.50;99.90
52439;DHT22;38359;53.150;6.504;2022-11-04T19:54:10;8.50;99.90
52439;DHT22;38359;53.150;6.504;2022-11-04T20:04:36;8.40;99.90
52439;DHT22;38359;53.150;6.504;2022-11-04T20:15:02;8.20;99.90
52439;DHT22;38359;53.150;6.504;2022-11-04T20:25:28;8.20;99.90
52439;DHT22;38359;53.150;6.504;2022-11-04T20:35:54;8.20;99.90
52439;DHT22;38359;53.150;6.504;2022-11-04T20:46:22;8.30;99.90
52439;DHT22;38359;53.150;6.504;2022-11-04T20:56:50;8.40;99.90
52439;DHT22;38359;53.150;6.504;2022-11-04T21:07:16;8.40;99.90
52439;DHT22;38359;53.150;6.504;2022-11-04T21:17:42;8.20;99.90
52439;DHT22;38359;53.150;6.504;2022-11-04T21:28:08;8.00;99.90
52439;DHT22;38359;53.150;6.504;2022-11-04T21:38:34;7.80;99.90
52439;DHT22;38359;53.150;6.504;2022-11-04T21:49:00;7.80;99.90
52439;DHT22;38359;53.150;6.504;2022-11-04T21:59:26;7.70;99.90
52439;DHT22;38359;53.150;6.504;2022-11-04T22:09:52;7.80;99.90
52439;DHT22;38359;53.150;6.504;2022-11-04T22:20:17;8.00;99.90
52439;DHT22;38359;53.150;6.504;2022-11-04T22:30:44;7.90;99.90
52439;DHT22;38359;53.150;6.504;2022-11-04T22:41:13;7.80;99.90
52439;DHT22;38359;53.150;6.504;2022-11-04T22:51:40;7.50;99.90
52439;DHT22;38359;53.150;6.504;2022-11-04T23:02:06;7.40;99.90
52439;DHT22;38359;53.150;6.504;2022-11-04T23:12:31;7.30;99.90
52439;DHT22;38359;53.150;6.504;2022-11-04T23:23:16;7.30;99.90
52439;DHT22;38359;53.150;6.504;2022-11-04T23:34:00;7.10;99.90
52439;DHT22;38359;53.150;6.504;2022-11-04T23:44:52;7.00;99.90
52439;DHT22;38359;53.150;6.504;2022-11-04T23:55:38;7.00;99.90
